Time;durP1;ratioP1;P1;durP2;ratioP2;P2;SDS_P1;SDS_P2;PMS_P1;PMS_P2;Temp;Humidity;BMP_temperature;BMP_pressure;BME280_temperature;BME280_humidity;BME280_pressure;Samples;Min_cycle;Max_cycle;Signal;HPM_P1;HPM_P2
2023/05/31 00:00:11;;;;;;;8.13;6.75;;;;;;;;;;5114665;27;20031;-77
2023/05/31 00:02:36;;;;;;;9.43;7.95;;;;;;;;;;5103063;27;20079;-79
2023/05/31 00:05:02;;;;;;;9.93;7.63;;;;;;;;;;5117955;27;20026;-81
2023/05/31 00:07:27;;;;;;;10.43;7.80;;;;;;;;;;5121604;27;20057;-77
2023/05/31 00:09:52;;;;;;;9.80;7.35;;;;;;;;;;5101584;27;20144;-82
2023/05/31 00:12:18;;;;;;;9.48;7.88;;;;;;;;;;5121395;27;20031;-81
2023/05/31 00:14:43;;;;;;;7.20;6.50;;;;;;;;;;5117361;27;20027;-78
2023/05/31 00:17:08;;;;;;;6.97;6.28;;;;;;;;;;5110561;27;20037;-78
2023/05/31 00:19:34;;;;;;;8.52;7.15;;;;;;;;;;5107786;27;20059;-79
2023/05/31 00:21:59;;;;;;;8.65;7.25;;;;;;;;;;5106741;27;20035;-78
2023/05/31 00:24:24;;;;;;;11.77;7.45;;;;;;;;;;5116665;27;20023;-79
2023/05/31 00:26:50;;;;;;;11.45;7.97;;;;;;;;;;5109751;27;20031;-81
2023/05/31 00:29:15;;;;;;;9.52;7.97;;;;;;;;;;5122898;27;20073;-79
2023/05/31 00:31:41;;;;;;;11.48;8.32;;;;;;;;;;5108913;27;20031;-82
2023/05/31 00:34:06;;;;;;;7.85;7.05;;;;;;;;;;5117467;27;20042;-81
2023/05/31 00:36:32;;;;;;;7.75;6.95;;;;;;;;;;5103098;27;20070;-83
2023/05/31 00:38:57;;;;;;;8.95;7.15;;;;;;;;;;5109744;27;20024;-81
2023/05/31 00:41:23;;;;;;;8.65;7.22;;;;;;;;;;5113279;27;20047;-79
2023/05/31 00:43:48;;;;;;;7.30;6.63;;;;;;;;;;5121000;27;20106;-80
2023/05/31 00:46:40;;;;;;;8.70;6.65;;;;;;;;;;5119913;27;20088;-78
2023/05/31 00:49:06;;;;;;;7.45;6.75;;;;;;;;;;5117199;27;20163;-79
2023/05/31 00:51:31;;;;;;;10.55;7.32;;;;;;;;;;5121999;27;20079;-79
2023/05/31 00:53:57;;;;;;;7.53;6.75;;;;;;;;;;5096418;27;20027;-80
2023/05/31 00:56:23;;;;;;;8.85;6.85;;;;;;;;;;5098297;27;20035;-83
2023/05/31 00:58:48;;;;;;;8.02;7.25;;;;;;;;;;5116955;27;20032;-79
2023/05/31 01:01:14;;;;;;;9.50;6.68;;;;;;;;;;5119395;27;20048;-81
2023/05/31 01:03:40;;;;;;;8.85;7.80;;;;;;;;;;5100441;27;20100;-82
2023/05/31 01:06:05;;;;;;;10.82;8.45;;;;;;;;;;5111517;27;20203;-80
2023/05/31 01:08:31;;;;;;;11.02;7.95;;;;;;;;;;5116133;27;20116;-78
2023/05/31 01:10:58;;;;;;;13.00;7.40;;;;;;;;;;5117493;27;20449;-78
2023/05/31 01:13:28;;;;;;;8.57;7.53;;;;;;;;;;5118407;27;20023;-77
2023/05/31 01:16:18;;;;;;;11.32;6.75;;;;;;;;;;5109906;27;20088;-77
2023/05/31 01:18:54;;;;;;;8.45;7.15;;;;;;;;;;5106830;27;20728;-79
2023/05/31 01:21:26;;;;;;;10.60;7.43;;;;;;;;;;5118319;27;20031;-80
2023/05/31 01:24:21;;;;;;;13.32;8.82;;;;;;;;;;5121442;27;20023;-80
2023/05/31 01:26:49;;;;;;;11.65;7.50;;;;;;;;;;5105644;27;20050;-79
2023/05/31 01:29:18;;;;;;;10.17;7.87;;;;;;;;;;5117762;27;20038;-79
2023/05/31 01:31:45;;;;;;;7.38;6.55;;;;;;;;;;5121062;27;20254;-80
2023/05/31 01:34:11;;;;;;;9.63;6.85;;;;;;;;;;5108478;27;20031;-79
2023/05/31 01:36:36;;;;;;;10.60;6.80;;;;;;;;;;5100801;27;20068;-79
2023/05/31 01:39:03;;;;;;;10.35;7.10;;;;;;;;;;5120043;27;20041;-81
2023/05/31 01:41:30;;;;;;;12.75;7.30;;;;;;;;;;5107757;27;20032;-81
2023/05/31 01:43:56;;;;;;;9.02;7.22;;;;;;;;;;5114273;27;20497;-78
2023/05/31 01:46:21;;;;;;;12.32;8.60;;;;;;;;;;5122569;27;20023;-78
2023/05/31 01:48:47;;;;;;;12.77;7.30;;;;;;;;;;5119033;27;20030;-80
2023/05/31 01:51:14;;;;;;;10.38;8.32;;;;;;;;;;5102840;27;20045;-79
2023/05/31 01:53:40;;;;;;;13.50;7.50;;;;;;;;;;5119431;27;20477;-77
2023/05/31 01:56:07;;;;;;;9.13;7.10;;;;;;;;;;5116945;27;20509;-80
2023/05/31 01:58:34;;;;;;;10.23;7.63;;;;;;;;;;5115267;27;20027;-81
2023/05/31 02:01:00;;;;;;;10.57;7.10;;;;;;;;;;5112298;27;20039;-80
2023/05/31 02:03:25;;;;;;;10.45;7.55;;;;;;;;;;5119907;27;20027;-79
2023/05/31 02:06:12;;;;;;;14.02;7.30;;;;;;;;;;5116724;27;20026;-79
2023/05/31 02:08:38;;;;;;;7.40;6.57;;;;;;;;;;5119461;27;20437;-81
2023/05/31 02:11:03;;;;;;;8.23;6.65;;;;;;;;;;5120535;27;20053;-79
2023/05/31 02:13:30;;;;;;;12.20;7.50;;;;;;;;;;5116948;27;20442;-79
2023/05/31 02:15:56;;;;;;;10.27;7.57;;;;;;;;;;5101079;27;20076;-79
2023/05/31 02:18:21;;;;;;;9.00;7.75;;;;;;;;;;5118225;27;20039;-82
2023/05/31 02:20:47;;;;;;;9.48;7.57;;;;;;;;;;5101754;27;20063;-80
2023/05/31 02:23:12;;;;;;;9.95;7.68;;;;;;;;;;5116942;27;20404;-82
2023/05/31 02:25:38;;;;;;;7.82;6.93;;;;;;;;;;5095929;27;20037;-81
2023/05/31 02:28:03;;;;;;;8.02;7.13;;;;;;;;;;5114299;27;20069;-80
2023/05/31 02:30:30;;;;;;;8.13;6.70;;;;;;;;;;5104125;27;20115;-79
2023/05/31 02:32:55;;;;;;;12.60;8.75;;;;;;;;;;5113636;27;20164;-77
2023/05/31 02:35:21;;;;;;;11.75;8.90;;;;;;;;;;5108707;27;20032;-80
2023/05/31 02:37:46;;;;;;;9.32;8.05;;;;;;;;;;5118126;27;20031;-79
2023/05/31 02:40:12;;;;;;;10.43;7.13;;;;;;;;;;5112772;27;20078;-78
2023/05/31 02:42:42;;;;;;;10.02;7.35;;;;;;;;;;5111834;27;20031;-79
2023/05/31 02:45:08;;;;;;;11.07;7.60;;;;;;;;;;5117248;27;20054;-82
2023/05/31 02:47:36;;;;;;;9.73;7.00;;;;;;;;;;5118019;27;20034;-78
2023/05/31 02:50:01;;;;;;;11.38;7.43;;;;;;;;;;5102948;27;20039;-83
2023/05/31 02:52:27;;;;;;;7.95;6.80;;;;;;;;;;5116532;27;20049;-79
2023/05/31 02:54:52;;;;;;;8.48;6.10;;;;;;;;;;5120695;27;20302;-79
2023/05/31 02:57:18;;;;;;;7.68;5.97;;;;;;;;;;5116857;27;20516;-78
2023/05/31 02:59:43;;;;;;;11.20;8.07;;;;;;;;;;5111397;27;20076;-79
2023/05/31 03:02:09;;;;;;;12.95;9.77;;;;;;;;;;5105061;27;21012;-80
2023/05/31 03:04:35;;;;;;;14.75;9.30;;;;;;;;;;5116861;27;20050;-80
2023/05/31 03:07:00;;;;;;;15.45;8.80;;;;;;;;;;5117387;27;20450;-80
2023/05/31 03:09:25;;;;;;;12.30;7.75;;;;;;;;;;5119542;27;20031;-81
2023/05/31 03:11:51;;;;;;;8.30;6.05;;;;;;;;;;5120817;28;20027;-81
2023/05/31 03:14:16;;;;;;;9.82;8.32;;;;;;;;;;5119116;28;20391;-81
2023/05/31 03:16:42;;;;;;;22.35;14.05;;;;;;;;;;5115272;28;20370;-80
2023/05/31 03:19:08;;;;;;;23.80;13.80;;;;;;;;;;5118049;28;20040;-80
2023/05/31 03:21:33;;;;;;;21.42;13.68;;;;;;;;;;5097894;28;23550;-82
2023/05/31 03:23:58;;;;;;;16.65;10.60;;;;;;;;;;5103701;27;20051;-80
2023/05/31 03:26:24;;;;;;;10.77;7.97;;;;;;;;;;5099347;28;20019;-83
2023/05/31 03:28:49;;;;;;;8.60;7.55;;;;;;;;;;5100615;28;20081;-80
2023/05/31 03:31:15;;;;;;;6.88;6.20;;;;;;;;;;5099704;27;20154;-81
2023/05/31 03:33:40;;;;;;;8.75;7.30;;;;;;;;;;5108899;27;20019;-82
2023/05/31 03:36:06;;;;;;;8.93;6.70;;;;;;;;;;5108977;27;20139;-85
2023/05/31 03:38:31;;;;;;;8.15;6.82;;;;;;;;;;5102761;27;20306;-80
2023/05/31 03:40:56;;;;;;;11.00;7.90;;;;;;;;;;5104019;27;20063;-82
2023/05/31 03:43:22;;;;;;;10.88;7.80;;;;;;;;;;5103541;27;20054;-79
2023/05/31 03:45:47;;;;;;;13.82;8.85;;;;;;;;;;5105506;27;20109;-81
2023/05/31 03:48:12;;;;;;;10.80;9.40;;;;;;;;;;5107110;27;20023;-81
2023/05/31 03:50:41;;;;;;;10.25;8.13;;;;;;;;;;5103702;27;20071;-80
2023/05/31 03:53:06;;;;;;;9.90;6.97;;;;;;;;;;5104295;27;20039;-80
2023/05/31 03:55:32;;;;;;;8.32;7.03;;;;;;;;;;5104905;27;20273;-82
2023/05/31 03:57:58;;;;;;;7.63;6.35;;;;;;;;;;5108170;27;20309;-80
2023/05/31 04:00:23;;;;;;;9.82;6.95;;;;;;;;;;5104894;27;20066;-79
2023/05/31 04:02:49;;;;;;;13.30;7.25;;;;;;;;;;5103039;27;20310;-80
2023/05/31 04:05:14;;;;;;;8.80;7.30;;;;;;;;;;5121491;27;20426;-79
2023/05/31 04:07:40;;;;;;;9.88;7.35;;;;;;;;;;5119570;27;21343;-80
2023/05/31 04:10:06;;;;;;;10.48;7.35;;;;;;;;;;5109745;27;20019;-80
2023/05/31 04:12:31;;;;;;;10.68;6.65;;;;;;;;;;5107314;27;20042;-80
2023/05/31 04:14:56;;;;;;;8.60;7.80;;;;;;;;;;5117463;27;20052;-79
2023/05/31 04:17:22;;;;;;;9.45;8.18;;;;;;;;;;5101324;27;20457;-79
2023/05/31 04:19:47;;;;;;;8.90;7.55;;;;;;;;;;5111980;27;20357;-80
2023/05/31 04:22:13;;;;;;;9.35;7.25;;;;;;;;;;5105919;27;20028;-79
2023/05/31 04:24:38;;;;;;;11.57;8.15;;;;;;;;;;5102522;27;20062;-80
2023/05/31 04:27:06;;;;;;;8.55;7.70;;;;;;;;;;5107442;27;20389;-81
2023/05/31 04:29:32;;;;;;;9.90;7.55;;;;;;;;;;5119353;27;20031;-80
2023/05/31 04:31:58;;;;;;;8.48;7.63;;;;;;;;;;5109589;27;20330;-82
2023/05/31 04:34:23;;;;;;;12.00;9.45;;;;;;;;;;5104899;27;20027;-78
2023/05/31 04:36:49;;;;;;;16.25;12.32;;;;;;;;;;5097421;27;20035;-79
2023/05/31 04:39:15;;;;;;;15.73;11.25;;;;;;;;;;5106057;27;20046;-84
2023/05/31 04:41:41;;;;;;;12.43;9.98;;;;;;;;;;5114079;27;20050;-80
2023/05/31 04:44:06;;;;;;;11.60;8.18;;;;;;;;;;5102009;27;20119;-79
2023/05/31 04:46:32;;;;;;;11.23;8.07;;;;;;;;;;5118797;27;20046;-78
2023/05/31 04:48:57;;;;;;;8.80;6.72;;;;;;;;;;5105386;27;20191;-79
2023/05/31 04:51:23;;;;;;;10.10;6.68;;;;;;;;;;5115805;27;20030;-80
2023/05/31 04:53:48;;;;;;;8.10;6.40;;;;;;;;;;5119851;27;20034;-82
2023/05/31 04:56:14;;;;;;;7.47;5.85;;;;;;;;;;5115264;27;20057;-82
2023/05/31 04:58:39;;;;;;;6.47;5.85;;;;;;;;;;5109100;27;20034;-80
2023/05/31 05:01:06;;;;;;;6.88;6.18;;;;;;;;;;5107815;27;20186;-79
2023/05/31 05:03:33;;;;;;;7.15;6.45;;;;;;;;;;5110723;27;20058;-80
2023/05/31 05:06:00;;;;;;;8.50;7.28;;;;;;;;;;5116889;27;20080;-79
2023/05/31 05:08:26;;;;;;;11.02;6.72;;;;;;;;;;5099212;27;20054;-79
2023/05/31 05:10:51;;;;;;;9.63;8.05;;;;;;;;;;5100576;27;20032;-81
2023/05/31 05:13:16;;;;;;;10.63;7.90;;;;;;;;;;5097979;27;20050;-79
2023/05/31 05:15:42;;;;;;;9.63;7.97;;;;;;;;;;5116876;27;20023;-79
2023/05/31 05:18:07;;;;;;;10.35;8.80;;;;;;;;;;5121984;27;20092;-79
2023/05/31 05:20:33;;;;;;;12.88;8.13;;;;;;;;;;5117943;27;20026;-80
2023/05/31 05:23:02;;;;;;;9.68;7.85;;;;;;;;;;5119633;27;20035;-80
2023/05/31 05:25:27;;;;;;;12.80;7.95;;;;;;;;;;5118343;27;20045;-80
2023/05/31 05:27:52;;;;;;;11.63;7.28;;;;;;;;;;5104793;27;20345;-79
2023/05/31 05:30:18;;;;;;;13.13;7.53;;;;;;;;;;5099454;27;20020;-78
2023/05/31 05:32:43;;;;;;;16.08;7.45;;;;;;;;;;5115652;27;20026;-81
2023/05/31 05:35:09;;;;;;;9.90;6.38;;;;;;;;;;5109576;27;20031;-78
2023/05/31 05:37:35;;;;;;;8.88;6.88;;;;;;;;;;5098870;27;20049;-80
2023/05/31 05:40:00;;;;;;;9.75;7.60;;;;;;;;;;5114368;27;20114;-79
2023/05/31 05:42:27;;;;;;;6.63;6.03;;;;;;;;;;5105189;27;20024;-78
2023/05/31 05:44:52;;;;;;;8.35;6.47;;;;;;;;;;5114123;27;20019;-79
2023/05/31 05:47:17;;;;;;;7.45;6.70;;;;;;;;;;5119964;27;20493;-79
2023/05/31 05:49:43;;;;;;;7.53;6.80;;;;;;;;;;5115921;27;20056;-79
2023/05/31 05:52:08;;;;;;;7.45;6.65;;;;;;;;;;5103978;27;21243;-79
2023/05/31 05:54:33;;;;;;;8.10;7.10;;;;;;;;;;5119081;27;20097;-78
2023/05/31 05:56:59;;;;;;;9.63;6.28;;;;;;;;;;5119337;27;20031;-77
2023/05/31 05:59:24;;;;;;;8.88;6.78;;;;;;;;;;5119581;27;20105;-76
2023/05/31 06:01:50;;;;;;;7.95;6.50;;;;;;;;;;5120449;27;20076;-77
2023/05/31 06:04:15;;;;;;;7.70;6.00;;;;;;;;;;5117906;27;20035;-77
2023/05/31 06:06:41;;;;;;;10.85;6.65;;;;;;;;;;5116390;27;20019;-76
2023/05/31 06:09:07;;;;;;;8.38;6.60;;;;;;;;;;5119285;27;20039;-75
2023/05/31 06:11:32;;;;;;;8.18;7.20;;;;;;;;;;5117043;27;20457;-77
2023/05/31 06:13:58;;;;;;;12.38;7.20;;;;;;;;;;5107049;27;20023;-75
2023/05/31 06:16:23;;;;;;;8.90;7.22;;;;;;;;;;5109029;27;20108;-76
2023/05/31 06:18:49;;;;;;;11.13;7.25;;;;;;;;;;5118642;27;20294;-75
2023/05/31 06:21:15;;;;;;;8.40;6.45;;;;;;;;;;5118586;27;20027;-77
2023/05/31 06:23:40;;;;;;;9.75;6.22;;;;;;;;;;5117405;27;20063;-77
2023/05/31 06:26:06;;;;;;;9.60;6.75;;;;;;;;;;5119791;27;20123;-77
2023/05/31 06:28:32;;;;;;;7.28;5.95;;;;;;;;;;5117004;27;20031;-77
2023/05/31 06:30:59;;;;;;;10.63;7.05;;;;;;;;;;5115117;27;20441;-76
2023/05/31 06:33:24;;;;;;;6.78;5.60;;;;;;;;;;5117730;27;20031;-77
2023/05/31 06:35:50;;;;;;;7.35;6.57;;;;;;;;;;5119217;27;20015;-77
2023/05/31 06:38:16;;;;;;;9.68;8.60;;;;;;;;;;5118514;27;20374;-76
2023/05/31 06:40:42;;;;;;;17.00;8.82;;;;;;;;;;5117801;27;20435;-76
2023/05/31 06:43:08;;;;;;;11.80;8.70;;;;;;;;;;5117187;27;20079;-77
2023/05/31 06:45:33;;;;;;;15.85;10.73;;;;;;;;;;5115140;27;20441;-79
2023/05/31 06:47:58;;;;;;;10.68;9.02;;;;;;;;;;5116778;27;20031;-75
2023/05/31 06:50:24;;;;;;;10.77;8.15;;;;;;;;;;5117210;27;20027;-75
2023/05/31 06:52:49;;;;;;;10.18;7.25;;;;;;;;;;5116018;27;20114;-76
2023/05/31 06:55:15;;;;;;;7.68;6.78;;;;;;;;;;5116716;27;20338;-76
2023/05/31 06:57:40;;;;;;;8.30;7.50;;;;;;;;;;5115084;27;20417;-77
2023/05/31 07:00:07;;;;;;;8.48;7.60;;;;;;;;;;5115042;27;20031;-76
2023/05/31 07:02:32;;;;;;;13.50;7.85;;;;;;;;;;5117872;27;20078;-77
2023/05/31 07:04:59;;;;;;;10.38;7.50;;;;;;;;;;5116103;27;20023;-76
2023/05/31 07:07:25;;;;;;;11.35;7.18;;;;;;;;;;5119570;27;20051;-76
2023/05/31 07:09:51;;;;;;;12.73;6.75;;;;;;;;;;5116041;27;20431;-76
2023/05/31 07:12:16;;;;;;;9.05;7.85;;;;;;;;;;5113603;28;20119;-77
2023/05/31 07:14:41;;;;;;;10.43;7.70;;;;;;;;;;5118303;28;20030;-77
2023/05/31 07:17:07;;;;;;;8.95;6.78;;;;;;;;;;5116523;28;20031;-76
2023/05/31 07:19:42;;;;;;;7.93;6.70;;;;;;;;;;5113996;28;20516;-76
2023/05/31 07:22:07;;;;;;;6.35;5.75;;;;;;;;;;5115495;28;20032;-77
2023/05/31 07:24:33;;;;;;;8.85;6.50;;;;;;;;;;5115937;28;20465;-76
2023/05/31 07:26:58;;;;;;;9.23;6.50;;;;;;;;;;5114306;28;20034;-79
2023/05/31 07:29:24;;;;;;;7.35;6.55;;;;;;;;;;5119135;28;20023;-76
2023/05/31 07:31:49;;;;;;;12.65;6.38;;;;;;;;;;5115880;28;20034;-76
2023/05/31 07:34:14;;;;;;;9.45;6.35;;;;;;;;;;5115869;28;20038;-76
2023/05/31 07:36:41;;;;;;;7.45;6.38;;;;;;;;;;5115841;28;20382;-75
2023/05/31 07:39:06;;;;;;;8.80;6.32;;;;;;;;;;5117445;28;20051;-77
2023/05/31 07:41:31;;;;;;;10.75;5.85;;;;;;;;;;5118801;28;20454;-77
2023/05/31 07:43:57;;;;;;;7.40;5.82;;;;;;;;;;5117228;28;20486;-76
2023/05/31 07:46:22;;;;;;;7.75;5.30;;;;;;;;;;5115555;28;20383;-76
2023/05/31 07:48:47;;;;;;;7.80;5.90;;;;;;;;;;5114894;28;20709;-76
2023/05/31 07:51:13;;;;;;;6.72;5.40;;;;;;;;;;5117110;28;20023;-76
2023/05/31 07:53:39;;;;;;;5.22;4.47;;;;;;;;;;5116010;28;20978;-76
2023/05/31 07:56:05;;;;;;;4.72;4.32;;;;;;;;;;5113068;28;20038;-76
2023/05/31 07:58:30;;;;;;;6.68;4.65;;;;;;;;;;5114800;28;20015;-76
2023/05/31 08:00:56;;;;;;;5.05;4.55;;;;;;;;;;5114248;28;20026;-77
2023/05/31 08:03:22;;;;;;;5.22;4.50;;;;;;;;;;5113470;28;20023;-76
2023/05/31 08:05:49;;;;;;;5.30;4.80;;;;;;;;;;5112223;28;20034;-75
2023/05/31 08:08:15;;;;;;;6.13;4.65;;;;;;;;;;5119545;28;20051;-76
2023/05/31 08:10:40;;;;;;;5.38;4.30;;;;;;;;;;5114390;28;20155;-76
2023/05/31 08:13:05;;;;;;;7.13;4.80;;;;;;;;;;5115601;28;20446;-78
2023/05/31 08:15:31;;;;;;;5.32;4.05;;;;;;;;;;5113578;28;20055;-76
2023/05/31 08:17:56;;;;;;;8.13;3.53;;;;;;;;;;5115617;27;20015;-77
2023/05/31 08:20:21;;;;;;;4.25;3.85;;;;;;;;;;5117573;27;20053;-77
2023/05/31 08:22:47;;;;;;;5.57;4.40;;;;;;;;;;5119937;27;20019;-76
2023/05/31 08:25:14;;;;;;;4.22;3.90;;;;;;;;;;5116730;27;20079;-75
2023/05/31 08:27:42;;;;;;;6.22;4.20;;;;;;;;;;5117922;27;20043;-76
2023/05/31 08:30:09;;;;;;;8.33;3.93;;;;;;;;;;5116598;27;20461;-75
2023/05/31 08:32:34;;;;;;;4.80;3.90;;;;;;;;;;5117730;27;20282;-75
2023/05/31 08:35:00;;;;;;;4.22;3.83;;;;;;;;;;5118743;27;20065;-75
2023/05/31 08:37:25;;;;;;;4.57;4.10;;;;;;;;;;5118883;27;20028;-75
2023/05/31 08:39:51;;;;;;;4.30;3.90;;;;;;;;;;5118739;27;20034;-75
2023/05/31 08:42:28;;;;;;;5.30;4.50;;;;;;;;;;5118795;27;20031;-76
2023/05/31 08:44:53;;;;;;;7.60;4.82;;;;;;;;;;5121039;27;20015;-76
2023/05/31 08:47:24;;;;;;;6.15;4.38;;;;;;;;;;5119219;27;20458;-76
2023/05/31 08:49:49;;;;;;;5.30;4.80;;;;;;;;;;5117410;27;20518;-75
2023/05/31 08:52:16;;;;;;;10.57;4.45;;;;;;;;;;5119495;27;20035;-76
2023/05/31 08:54:42;;;;;;;5.15;4.10;;;;;;;;;;5117972;27;20019;-76
2023/05/31 08:57:09;;;;;;;4.55;3.85;;;;;;;;;;5120805;27;20055;-75
2023/05/31 08:59:36;;;;;;;5.00;3.50;;;;;;;;;;5120606;27;20035;-75
2023/05/31 09:02:03;;;;;;;4.25;3.38;;;;;;;;;;5119664;27;20035;-77
2023/05/31 09:04:28;;;;;;;4.22;3.45;;;;;;;;;;5117594;27;20015;-76
2023/05/31 09:06:53;;;;;;;4.43;3.35;;;;;;;;;;5119916;27;20022;-77
2023/05/31 09:09:19;;;;;;;4.40;3.45;;;;;;;;;;5118624;27;20058;-77
2023/05/31 09:11:45;;;;;;;5.40;3.60;;;;;;;;;;5117034;27;20426;-76
2023/05/31 09:14:10;;;;;;;5.03;3.25;;;;;;;;;;5117656;27;20342;-76
2023/05/31 09:16:36;;;;;;;4.40;3.80;;;;;;;;;;5119363;27;20030;-75
2023/05/31 09:19:02;;;;;;;4.18;3.72;;;;;;;;;;5118766;27;20069;-74
2023/05/31 09:21:28;;;;;;;4.97;3.90;;;;;;;;;;5117547;27;20150;-75
2023/05/31 09:23:54;;;;;;;7.75;4.68;;;;;;;;;;5117879;27;20482;-76
2023/05/31 09:26:20;;;;;;;4.25;3.47;;;;;;;;;;5117539;27;20075;-74
2023/05/31 09:28:53;;;;;;;4.05;3.40;;;;;;;;;;5115523;27;20036;-75
2023/05/31 09:31:18;;;;;;;3.55;2.67;;;;;;;;;;5116007;27;20106;-76
2023/05/31 09:33:45;;;;;;;4.43;2.70;;;;;;;;;;5119383;27;20126;-76
2023/05/31 09:36:11;;;;;;;3.30;2.92;;;;;;;;;;5118276;27;20031;-79
2023/05/31 09:38:36;;;;;;;2.83;2.63;;;;;;;;;;5119946;27;20066;-77
2023/05/31 09:41:31;;;;;;;3.45;3.08;;;;;;;;;;5118214;27;20081;-77
2023/05/31 09:43:56;;;;;;;3.80;3.08;;;;;;;;;;5020754;28;20064;-78
2023/05/31 09:46:22;;;;;;;4.68;3.33;;;;;;;;;;5020250;28;20065;-76
2023/05/31 09:48:57;;;;;;;8.10;5.40;;;;;;;;;;5018957;28;20041;-76
2023/05/31 09:51:22;;;;;;;5.43;4.93;;;;;;;;;;5019436;28;20167;-75
2023/05/31 09:53:51;;;;;;;3.90;3.60;;;;;;;;;;5019729;28;20053;-75
2023/05/31 09:56:17;;;;;;;3.22;2.92;;;;;;;;;;5019071;28;20087;-76
2023/05/31 09:58:43;;;;;;;6.70;3.63;;;;;;;;;;5020585;28;20042;-77
2023/05/31 10:01:09;;;;;;;13.20;6.00;;;;;;;;;;5018376;28;20050;-76
2023/05/31 10:03:35;;;;;;;6.57;4.85;;;;;;;;;;5019609;28;20681;-75
2023/05/31 10:06:00;;;;;;;6.60;5.30;;;;;;;;;;5020479;28;20025;-77
2023/05/31 10:08:26;;;;;;;6.18;5.00;;;;;;;;;;5013436;28;20119;-77
2023/05/31 10:10:53;;;;;;;6.97;4.70;;;;;;;;;;5014266;28;20041;-77
2023/05/31 10:13:19;;;;;;;6.57;4.85;;;;;;;;;;5012227;28;20098;-77
2023/05/31 10:15:46;;;;;;;5.63;5.13;;;;;;;;;;5011821;28;20034;-77
2023/05/31 10:18:15;;;;;;;10.15;5.22;;;;;;;;;;5014580;28;20045;-76
2023/05/31 10:20:55;;;;;;;7.15;5.65;;;;;;;;;;5065412;28;20040;-76
2023/05/31 10:23:22;;;;;;;7.78;5.25;;;;;;;;;;5093217;28;20024;-76
2023/05/31 10:25:47;;;;;;;6.00;5.07;;;;;;;;;;5094370;28;20114;-77
2023/05/31 10:28:15;;;;;;;6.93;4.88;;;;;;;;;;5092460;28;20172;-76
2023/05/31 10:30:41;;;;;;;5.63;5.07;;;;;;;;;;5093659;28;20379;-76
2023/05/31 10:33:07;;;;;;;6.07;4.93;;;;;;;;;;5091241;28;20160;-77
2023/05/31 10:35:33;;;;;;;6.43;5.82;;;;;;;;;;5093532;28;20123;-76
2023/05/31 10:37:59;;;;;;;6.80;6.05;;;;;;;;;;5092239;28;20106;-76
2023/05/31 10:40:38;;;;;;;7.05;5.00;;;;;;;;;;5094635;28;20023;-77
2023/05/31 10:43:26;;;;;;;5.80;5.30;;;;;;;;;;5094835;28;20023;-78
2023/05/31 10:45:54;;;;;;;5.75;5.15;;;;;;;;;;5089179;28;20462;-77
2023/05/31 10:48:26;;;;;;;7.57;5.72;;;;;;;;;;5095641;28;20042;-76
2023/05/31 10:50:52;;;;;;;8.95;5.53;;;;;;;;;;5093006;28;20331;-78
2023/05/31 10:53:17;;;;;;;8.48;5.85;;;;;;;;;;5094992;28;20140;-76
2023/05/31 10:55:43;;;;;;;12.65;9.20;;;;;;;;;;5092785;28;20031;-75
2023/05/31 10:58:27;;;;;;;8.10;7.07;;;;;;;;;;5094826;28;20678;-75
2023/05/31 11:00:54;;;;;;;13.20;7.78;;;;;;;;;;5093033;28;20497;-79
2023/05/31 11:03:27;;;;;;;7.13;6.40;;;;;;;;;;5091771;28;20106;-75
2023/05/31 11:05:56;;;;;;;12.07;10.80;;;;;;;;;;5094502;28;20454;-75
2023/05/31 11:08:21;;;;;;;11.00;8.60;;;;;;;;;;5109049;27;20048;-75
2023/05/31 11:10:48;;;;;;;10.07;8.35;;;;;;;;;;5112435;27;20947;-75
2023/05/31 11:13:13;;;;;;;7.75;6.95;;;;;;;;;;5116586;28;20066;-76
2023/05/31 11:15:40;;;;;;;8.30;6.68;;;;;;;;;;5116299;28;20015;-76
2023/05/31 11:18:26;;;;;;;7.25;5.95;;;;;;;;;;5116258;28;20031;-75
2023/05/31 11:20:51;;;;;;;10.00;7.05;;;;;;;;;;5114118;28;20077;-74
2023/05/31 11:23:17;;;;;;;7.95;7.25;;;;;;;;;;5115207;28;20028;-76
2023/05/31 11:25:42;;;;;;;7.85;7.07;;;;;;;;;;5112725;28;20031;-76
2023/05/31 11:28:07;;;;;;;5.85;5.20;;;;;;;;;;5111336;28;20031;-76
2023/05/31 11:30:36;;;;;;;6.40;5.90;;;;;;;;;;5119428;28;20088;-74
2023/05/31 11:33:03;;;;;;;6.60;6.00;;;;;;;;;;5116309;28;20023;-75
2023/05/31 11:35:31;;;;;;;6.50;5.50;;;;;;;;;;5116711;28;20747;-77
2023/05/31 11:38:01;;;;;;;6.23;5.37;;;;;;;;;;5115781;28;20015;-75
2023/05/31 11:40:26;;;;;;;7.45;5.45;;;;;;;;;;5115909;28;20035;-75
2023/05/31 11:42:53;;;;;;;5.90;5.30;;;;;;;;;;5114169;28;20394;-75
2023/05/31 11:45:22;;;;;;;7.32;5.07;;;;;;;;;;5114669;28;20322;-76
2023/05/31 11:47:47;;;;;;;6.78;5.75;;;;;;;;;;5117109;28;20027;-77
2023/05/31 11:50:16;;;;;;;7.97;5.68;;;;;;;;;;5102455;28;20160;-77
2023/05/31 11:52:41;;;;;;;6.95;5.60;;;;;;;;;;5118404;27;20382;-76
2023/05/31 11:55:10;;;;;;;5.43;4.90;;;;;;;;;;5120225;27;20145;-75
2023/05/31 11:57:44;;;;;;;5.78;5.28;;;;;;;;;;5121388;27;20039;-75
2023/05/31 12:00:12;;;;;;;7.53;5.47;;;;;;;;;;5120935;27;20425;-75
2023/05/31 12:02:39;;;;;;;5.85;5.32;;;;;;;;;;5118770;27;20168;-76
2023/05/31 12:05:04;;;;;;;6.72;5.45;;;;;;;;;;5116975;27;20015;-76
2023/05/31 12:07:30;;;;;;;7.57;6.78;;;;;;;;;;5119414;27;20062;-77
2023/05/31 12:09:55;;;;;;;8.82;7.40;;;;;;;;;;5119872;27;20083;-77
2023/05/31 12:12:20;;;;;;;8.07;6.40;;;;;;;;;;5119945;27;20075;-77
2023/05/31 12:14:52;;;;;;;6.72;6.07;;;;;;;;;;5119193;27;20055;-77
2023/05/31 12:17:18;;;;;;;6.53;5.93;;;;;;;;;;5119601;27;20031;-77
2023/05/31 12:19:46;;;;;;;9.77;6.50;;;;;;;;;;5119080;27;20041;-76
2023/05/31 12:22:12;;;;;;;6.82;6.15;;;;;;;;;;5118359;27;20026;-77
2023/05/31 12:24:37;;;;;;;6.78;5.57;;;;;;;;;;5118813;27;20027;-77
2023/05/31 12:27:05;;;;;;;15.77;5.60;;;;;;;;;;5118500;27;20441;-77
2023/05/31 12:29:31;;;;;;;7.93;7.13;;;;;;;;;;5096971;27;20031;-75
2023/05/31 12:32:05;;;;;;;9.93;7.25;;;;;;;;;;5099268;27;20103;-75
2023/05/31 12:34:35;;;;;;;12.32;8.38;;;;;;;;;;5099063;27;20388;-75
2023/05/31 12:37:00;;;;;;;;;;;;;;;;;;5098844;27;20080;-76
2023/05/31 12:39:26;;;;;;;7.57;6.87;;;;;;;;;;5100799;27;19919;-76
2023/05/31 12:41:52;;;;;;;6.70;6.00;;;;;;;;;;5100183;27;20035;-76
2023/05/31 12:44:21;;;;;;;5.60;5.10;;;;;;;;;;5099609;27;20351;-75
2023/05/31 12:46:50;;;;;;;5.95;5.45;;;;;;;;;;5098695;27;20038;-76
2023/05/31 12:49:22;;;;;;;8.02;6.47;;;;;;;;;;5098712;27;21265;-76
2023/05/31 12:52:04;;;;;;;8.88;7.43;;;;;;;;;;5099175;27;20023;-75
2023/05/31 12:54:31;;;;;;;11.38;8.55;;;;;;;;;;5099379;27;20042;-76
2023/05/31 12:56:57;;;;;;;6.55;5.75;;;;;;;;;;5117889;27;20354;-76
2023/05/31 12:59:23;;;;;;;6.57;5.97;;;;;;;;;;5113623;27;20118;-77
2023/05/31 13:01:48;;;;;;;6.47;5.78;;;;;;;;;;5118241;27;20105;-80
2023/05/31 13:04:13;;;;;;;6.70;6.10;;;;;;;;;;5121408;27;20030;-82
2023/05/31 13:06:39;;;;;;;6.53;5.30;;;;;;;;;;5119291;27;20251;-83
2023/05/31 13:09:06;;;;;;;6.80;5.47;;;;;;;;;;5120809;27;20050;-81
2023/05/31 13:11:39;;;;;;;6.25;5.65;;;;;;;;;;5121135;27;20035;-84
2023/05/31 13:14:05;;;;;;;8.02;5.97;;;;;;;;;;5119040;27;20027;-81
2023/05/31 13:16:31;;;;;;;6.60;6.00;;;;;;;;;;5121864;27;20019;-81
2023/05/31 13:18:57;;;;;;;7.10;6.18;;;;;;;;;;5117611;27;20104;-81
2023/05/31 13:21:22;;;;;;;7.97;5.53;;;;;;;;;;5121955;27;20437;-81
2023/05/31 13:23:48;;;;;;;5.80;5.30;;;;;;;;;;5120523;27;20027;-80
2023/05/31 13:26:13;;;;;;;5.78;5.30;;;;;;;;;;5120016;27;20368;-80
2023/05/31 13:28:38;;;;;;;6.03;5.50;;;;;;;;;;5120210;27;20031;-81
2023/05/31 13:31:04;;;;;;;7.28;6.53;;;;;;;;;;5117136;27;20019;-79
2023/05/31 13:33:30;;;;;;;7.55;6.80;;;;;;;;;;5118070;27;20745;-77
2023/05/31 13:35:56;;;;;;;7.18;6.55;;;;;;;;;;5117504;27;20166;-77
2023/05/31 13:38:23;;;;;;;7.32;6.63;;;;;;;;;;5120441;27;20453;-80
2023/05/31 13:40:50;;;;;;;10.80;6.72;;;;;;;;;;5103361;27;20092;-80
2023/05/31 13:43:19;;;;;;;8.05;6.50;;;;;;;;;;5118237;27;20031;-78
2023/05/31 13:45:45;;;;;;;6.93;6.13;;;;;;;;;;5119025;27;20034;-80
2023/05/31 13:48:10;;;;;;;8.90;7.00;;;;;;;;;;5118249;27;20269;-81
2023/05/31 13:50:36;;;;;;;10.95;6.88;;;;;;;;;;5122060;27;20019;-81
2023/05/31 13:53:01;;;;;;;9.55;7.30;;;;;;;;;;5118557;27;21111;-79
2023/05/31 13:55:27;;;;;;;7.57;6.88;;;;;;;;;;5114727;27;20027;-81
2023/05/31 13:57:52;;;;;;;8.05;7.28;;;;;;;;;;5109476;27;20494;-80
2023/05/31 14:00:19;;;;;;;7.72;6.72;;;;;;;;;;5117364;27;20494;-81
2023/05/31 14:02:44;;;;;;;8.90;7.30;;;;;;;;;;5099655;27;20019;-78
2023/05/31 14:05:10;;;;;;;7.20;6.32;;;;;;;;;;5102620;27;20320;-78
2023/05/31 14:07:35;;;;;;;7.03;6.38;;;;;;;;;;5117704;27;20755;-80
2023/05/31 14:10:01;;;;;;;10.70;6.85;;;;;;;;;;5116445;27;20042;-80
2023/05/31 14:12:27;;;;;;;8.07;6.22;;;;;;;;;;5117916;27;20029;-80
2023/05/31 14:14:53;;;;;;;6.43;5.82;;;;;;;;;;5096372;27;20408;-81
2023/05/31 14:17:18;;;;;;;6.15;5.65;;;;;;;;;;5100640;27;20506;-82
2023/05/31 14:19:43;;;;;;;5.57;5.00;;;;;;;;;;5098079;27;20027;-80
2023/05/31 14:22:09;;;;;;;6.00;5.28;;;;;;;;;;5085229;27;20433;-79
2023/05/31 14:24:34;;;;;;;7.88;5.38;;;;;;;;;;5107896;27;20063;-81
2023/05/31 14:26:59;;;;;;;8.98;6.05;;;;;;;;;;5115434;27;20074;-81
2023/05/31 14:29:25;;;;;;;6.57;5.45;;;;;;;;;;5111815;27;20030;-77
2023/05/31 14:31:51;;;;;;;7.18;5.82;;;;;;;;;;5100488;27;20019;-78
2023/05/31 14:34:17;;;;;;;6.03;5.43;;;;;;;;;;5097085;27;20122;-78